Time;durP1;ratioP1;P1;durP2;ratioP2;P2;SDS_P1;SDS_P2;PMS_P1;PMS_P2;Temp;Humidity;BMP_temperature;BMP_pressure;BME280_temperature;BME280_humidity;BME280_pressure;Samples;Min_cycle;Max_cycle;Signal;HPM_P1;HPM_P2
2021/05/26 00:02:25;;;;;;;18.30;15.80;;;10.40;99.90;;;;;;5019005;28;20467;-69
2021/05/26 00:04:54;;;;;;;20.08;16.23;;;10.40;99.90;;;;;;5020115;28;20111;-69
2021/05/26 00:07:26;;;;;;;15.05;13.45;;;10.40;99.90;;;;;;5012832;28;20042;-71
2021/05/26 00:09:53;;;;;;;13.55;12.02;;;10.30;99.90;;;;;;5019555;28;20050;-69
2021/05/26 00:12:20;;;;;;;20.30;11.43;;;10.30;99.90;;;;;;5012132;28;20046;-70
2021/05/26 00:14:47;;;;;;;20.23;12.65;;;10.30;99.90;;;;;;5018941;28;20476;-69
2021/05/26 00:17:14;;;;;;;35.90;12.07;;;10.20;99.90;;;;;;5014643;28;20144;-72
2021/05/26 00:19:44;;;;;;;15.68;10.88;;;10.20;99.90;;;;;;5014829;28;20083;-69
2021/05/26 00:22:14;;;;;;;20.80;12.40;;;10.20;99.90;;;;;;5011983;28;20566;-72
2021/05/26 00:24:41;;;;;;;23.70;10.48;;;10.10;99.90;;;;;;5015003;28;20045;-72
2021/05/26 00:27:08;;;;;;;23.25;11.07;;;10.10;99.90;;;;;;5010302;28;20053;-70
2021/05/26 00:29:38;;;;;;;21.35;11.57;;;10.00;99.90;;;;;;5013510;28;20458;-69
2021/05/26 00:32:08;;;;;;;19.17;13.07;;;10.00;99.90;;;;;;5013612;28;20077;-72
2021/05/26 00:34:35;;;;;;;21.67;12.07;;;10.00;99.90;;;;;;5022146;28;20620;-69
2021/05/26 00:37:02;;;;;;;21.00;14.77;;;10.00;99.90;;;;;;5046953;28;20049;-68
2021/05/26 00:39:29;;;;;;;24.02;15.18;;;10.00;99.90;;;;;;5023067;28;20352;-70
2021/05/26 00:41:55;;;;;;;18.58;13.82;;;10.00;99.90;;;;;;5016427;28;20049;-68
2021/05/26 00:44:27;;;;;;;18.60;12.85;;;10.00;99.90;;;;;;5010753;28;20136;-68
2021/05/26 00:46:54;;;;;;;16.30;13.80;;;10.00;99.90;;;;;;5049133;28;20045;-69
2021/05/26 00:49:22;;;;;;;15.13;12.82;;;10.00;99.90;;;;;;5020556;28;20450;-70
2021/05/26 00:51:51;;;;;;;17.27;13.95;;;10.00;99.90;;;;;;5018057;28;20136;-69
2021/05/26 00:54:23;;;;;;;15.23;13.38;;;10.10;99.90;;;;;;5055562;28;20060;-69
2021/05/26 00:56:53;;;;;;;13.23;11.83;;;10.00;99.90;;;;;;5016857;28;20053;-68
2021/05/26 00:59:21;;;;;;;14.80;11.75;;;10.00;99.90;;;;;;5022128;28;20055;-71
2021/05/26 01:01:48;;;;;;;15.00;12.15;;;10.00;99.90;;;;;;5048199;28;20051;-68
2021/05/26 01:04:15;;;;;;;12.50;11.18;;;10.00;99.90;;;;;;5023097;28;20042;-70
2021/05/26 01:06:50;;;;;;;11.75;10.55;;;10.00;99.90;;;;;;5045620;28;20061;-69
2021/05/26 01:09:17;;;;;;;16.92;11.65;;;10.00;99.90;;;;;;5018948;28;20050;-68
2021/05/26 01:11:44;;;;;;;13.48;11.00;;;10.00;99.90;;;;;;5018781;28;20056;-68
2021/05/26 01:14:11;;;;;;;11.60;9.70;;;9.90;99.90;;;;;;5019496;28;20056;-69
2021/05/26 01:16:38;;;;;;;10.20;9.20;;;9.90;99.90;;;;;;5044296;28;20449;-70
2021/05/26 01:19:05;;;;;;;10.30;9.25;;;9.90;99.90;;;;;;5017932;28;20391;-69
2021/05/26 01:21:32;;;;;;;12.50;9.20;;;9.80;99.90;;;;;;5012433;28;20045;-69
2021/05/26 01:24:02;;;;;;;11.73;9.77;;;9.80;99.90;;;;;;5019487;28;20038;-69
2021/05/26 01:26:35;;;;;;;9.43;8.35;;;9.80;99.90;;;;;;5025667;28;21116;-70
2021/05/26 01:29:02;;;;;;;8.55;7.65;;;9.80;99.90;;;;;;5021616;28;20581;-69
2021/05/26 01:31:29;;;;;;;11.05;7.18;;;9.70;99.90;;;;;;5019150;28;20065;-68
2021/05/26 01:34:04;;;;;;;9.77;7.47;;;9.70;99.90;;;;;;5022178;28;20048;-71
2021/05/26 01:36:40;;;;;;;8.18;7.38;;;9.70;99.90;;;;;;5037867;28;20054;-69
2021/05/26 01:39:09;;;;;;;7.63;6.80;;;9.70;99.90;;;;;;5021354;28;20067;-69
2021/05/26 01:41:37;;;;;;;7.13;6.53;;;9.70;99.90;;;;;;5050840;28;20141;-71
2021/05/26 01:44:04;;;;;;;7.47;6.78;;;9.70;99.90;;;;;;5017411;28;20095;-71
2021/05/26 01:46:33;;;;;;;9.05;7.05;;;9.70;99.90;;;;;;5021572;28;20537;-70
2021/05/26 01:49:04;;;;;;;6.40;5.75;;;9.60;99.90;;;;;;5020658;28;20061;-72
2021/05/26 01:51:33;;;;;;;9.10;7.22;;;9.60;99.90;;;;;;5051584;28;20096;-69
2021/05/26 01:54:03;;;;;;;7.32;5.80;;;9.70;99.90;;;;;;5048920;28;20046;-71
2021/05/26 01:56:33;;;;;;;6.95;5.22;;;9.70;99.90;;;;;;5038339;28;20128;-71
2021/05/26 01:59:06;;;;;;;7.43;6.72;;;9.70;99.90;;;;;;5035777;28;20064;-69
2021/05/26 02:01:35;;;;;;;6.35;5.75;;;9.60;99.90;;;;;;5021797;28;20041;-70
2021/05/26 02:04:06;;;;;;;6.25;5.63;;;9.60;99.90;;;;;;5018309;28;20053;-70
2021/05/26 02:06:33;;;;;;;5.43;4.50;;;9.60;99.90;;;;;;5019902;28;20419;-71
2021/05/26 02:09:00;;;;;;;6.20;5.47;;;9.60;99.90;;;;;;5020034;28;20053;-70
2021/05/26 02:14:20;;;;;;;5.80;4.82;;;9.60;99.90;;;;;;5051368;28;20056;-69
2021/05/26 02:16:57;;;;;;;6.43;5.75;;;9.50;99.90;;;;;;5021121;28;20033;-69
2021/05/26 02:19:25;;;;;;;6.80;5.20;;;9.50;99.90;;;;;;5016550;28;20049;-68
2021/05/26 02:21:56;;;;;;;5.88;5.10;;;9.60;99.90;;;;;;5018267;28;20171;-69
2021/05/26 02:24:23;;;;;;;6.38;5.78;;;9.60;99.90;;;;;;5017068;28;20075;-71
2021/05/26 02:26:53;;;;;;;6.63;5.83;;;9.60;99.90;;;;;;5052244;28;20037;-70
2021/05/26 02:29:38;;;;;;;6.45;5.85;;;9.50;99.90;;;;;;5015641;28;20049;-67
2021/05/26 02:32:10;;;;;;;6.57;5.90;;;9.50;99.90;;;;;;5013400;28;20049;-70
2021/05/26 02:34:48;;;;;;;7.30;6.28;;;9.50;99.90;;;;;;5021358;28;20049;-71
2021/05/26 02:37:15;;;;;;;8.10;6.75;;;9.50;99.90;;;;;;5011354;28;20046;-68
2021/05/26 02:39:42;;;;;;;8.10;6.80;;;9.50;99.90;;;;;;5019029;28;20081;-72
2021/05/26 02:42:10;;;;;;;10.15;8.27;;;9.50;99.90;;;;;;5020715;28;20042;-71
2021/05/26 02:44:40;;;;;;;7.50;6.35;;;9.50;99.90;;;;;;5020777;28;20890;-68
2021/05/26 02:47:08;;;;;;;8.05;7.35;;;9.50;99.90;;;;;;5016565;28;20049;-69
2021/05/26 02:49:38;;;;;;;7.28;6.57;;;9.50;99.90;;;;;;5048417;28;20050;-72
2021/05/26 02:52:06;;;;;;;6.75;6.18;;;9.50;99.90;;;;;;5054087;28;20611;-73
2021/05/26 02:54:33;;;;;;;7.85;6.55;;;9.40;99.90;;;;;;5019324;28;20049;-70
2021/05/26 02:57:02;;;;;;;7.70;6.97;;;9.50;99.90;;;;;;5021218;28;20067;-68
2021/05/26 02:59:55;;;;;;;10.13;7.60;;;9.40;99.90;;;;;;5019100;28;20488;-68
2021/05/26 03:02:32;;;;;;;9.57;7.15;;;9.40;99.90;;;;;;5052377;28;20124;-70
2021/05/26 03:05:14;;;;;;;9.27;8.35;;;9.40;99.90;;;;;;5020574;28;20057;-69
2021/05/26 03:07:44;;;;;;;8.15;7.35;;;9.40;99.90;;;;;;5019734;28;20052;-69
2021/05/26 03:10:15;;;;;;;7.75;6.20;;;9.40;99.90;;;;;;5016081;28;20054;-70
2021/05/26 03:12:51;;;;;;;7.93;7.13;;;9.50;99.90;;;;;;5035889;28;20054;-70
2021/05/26 03:15:20;;;;;;;8.73;7.13;;;9.40;99.90;;;;;;5020704;28;20044;-68
2021/05/26 03:17:48;;;;;;;7.25;6.55;;;9.40;99.90;;;;;;5017728;28;20635;-68
2021/05/26 03:20:24;;;;;;;6.45;5.95;;;9.50;99.90;;;;;;5020135;28;20041;-71
2021/05/26 03:23:08;;;;;;;10.38;6.32;;;9.40;99.90;;;;;;5017706;28;20119;-70
2021/05/26 03:25:55;;;;;;;11.68;6.50;;;9.50;99.90;;;;;;5013789;28;20120;-68
2021/05/26 03:28:22;;;;;;;7.85;6.43;;;9.40;99.90;;;;;;5017400;28;20115;-71
2021/05/26 03:30:53;;;;;;;8.93;6.80;;;9.50;99.90;;;;;;5020024;28;20092;-71
2021/05/26 03:33:20;;;;;;;8.27;6.68;;;9.50;99.90;;;;;;5017191;28;20084;-70
2021/05/26 03:35:52;;;;;;;8.30;6.70;;;9.50;99.90;;;;;;5018178;28;20049;-68
2021/05/26 03:38:19;;;;;;;7.78;6.97;;;9.50;99.90;;;;;;5012302;28;20041;-69
2021/05/26 03:40:57;;;;;;;7.78;6.93;;;9.50;99.90;;;;;;5019492;28;20137;-69
2021/05/26 03:43:29;;;;;;;7.35;6.57;;;9.40;99.90;;;;;;5016695;28;20057;-68
2021/05/26 03:46:03;;;;;;;11.45;8.32;;;9.50;99.90;;;;;;5014465;28;20042;-68
2021/05/26 03:48:32;;;;;;;9.45;7.95;;;9.50;99.90;;;;;;5018506;28;20119;-69
2021/05/26 03:51:01;;;;;;;10.63;8.43;;;9.50;99.90;;;;;;5055780;28;20045;-71
2021/05/26 03:53:28;;;;;;;9.80;8.05;;;9.50;99.90;;;;;;5034519;28;20080;-70
2021/05/26 03:56:00;;;;;;;9.45;8.20;;;9.50;99.90;;;;;;5022508;28;20050;-70
2021/05/26 03:58:51;;;;;;;9.93;8.45;;;9.50;99.90;;;;;;5021115;28;20483;-69
2021/05/26 04:01:27;;;;;;;11.93;9.38;;;9.50;99.90;;;;;;5039117;28;20865;-68
2021/05/26 04:03:54;;;;;;;10.45;9.02;;;9.50;99.90;;;;;;5018352;28;20403;-69
2021/05/26 04:06:21;;;;;;;13.60;9.93;;;9.50;99.90;;;;;;5015984;28;20045;-70
2021/05/26 04:08:55;;;;;;;10.27;9.18;;;9.50;99.90;;;;;;5051226;28;20213;-71
2021/05/26 04:11:26;;;;;;;11.63;10.40;;;9.50;99.90;;;;;;5019669;28;20328;-69
2021/05/26 04:14:15;;;;;;;12.48;9.90;;;9.50;99.90;;;;;;5019413;28;20060;-68
2021/05/26 04:16:42;;;;;;;10.65;9.55;;;9.50;99.90;;;;;;5015869;28;20052;-68
2021/05/26 04:19:41;;;;;;;15.35;9.18;;;9.50;99.90;;;;;;5018854;28;20368;-69
2021/05/26 04:22:08;;;;;;;9.75;8.75;;;9.50;99.90;;;;;;5046859;28;20038;-67
2021/05/26 04:24:46;;;;;;;12.02;9.48;;;9.50;99.90;;;;;;5018246;28;20132;-70
2021/05/26 04:27:32;;;;;;;13.20;11.88;;;9.60;99.90;;;;;;5017441;28;20060;-71
2021/05/26 04:30:00;;;;;;;12.07;10.82;;;9.60;99.90;;;;;;5013404;28;20055;-68
2021/05/26 04:32:29;;;;;;;11.57;10.25;;;9.60;99.90;;;;;;5052832;28;20037;-68
2021/05/26 04:34:56;;;;;;;11.73;10.02;;;9.60;99.90;;;;;;5020851;28;20119;-70
2021/05/26 04:37:25;;;;;;;16.58;12.45;;;9.50;99.90;;;;;;5016286;28;20511;-69
2021/05/26 04:39:52;;;;;;;12.68;11.23;;;9.60;99.90;;;;;;5021708;28;20068;-69
2021/05/26 04:42:27;;;;;;;13.38;10.80;;;9.50;99.90;;;;;;5019094;28;20051;-70
2021/05/26 04:45:01;;;;;;;18.38;11.10;;;9.60;99.90;;;;;;5017332;28;20058;-69
2021/05/26 04:47:28;;;;;;;11.20;9.77;;;9.60;99.90;;;;;;5015983;28;20057;-69
2021/05/26 04:49:55;;;;;;;12.60;10.57;;;9.60;99.90;;;;;;5016276;28;20471;-71
2021/05/26 04:52:23;;;;;;;11.50;10.02;;;9.60;99.90;;;;;;5019556;28;20131;-72
2021/05/26 04:54:53;;;;;;;12.82;10.75;;;9.60;99.90;;;;;;5017128;28;20053;-71
2021/05/26 04:57:27;;;;;;;14.85;10.40;;;9.60;99.90;;;;;;5017500;28;20049;-68
2021/05/26 04:59:57;;;;;;;12.93;11.48;;;9.60;99.90;;;;;;5022651;28;20103;-69
2021/05/26 05:02:24;;;;;;;14.80;10.85;;;9.60;99.90;;;;;;5018452;28;20522;-68
2021/05/26 05:04:51;;;;;;;10.43;9.38;;;9.60;99.90;;;;;;5016966;28;20411;-72
2021/05/26 05:07:20;;;;;;;10.82;9.82;;;9.60;99.90;;;;;;5020240;28;20068;-69
2021/05/26 05:09:47;;;;;;;13.95;9.93;;;9.60;99.90;;;;;;5027497;28;20045;-69
2021/05/26 05:12:14;;;;;;;9.38;8.48;;;9.60;99.90;;;;;;5023234;28;20038;-68
2021/05/26 05:14:44;;;;;;;10.48;8.88;;;9.60;99.90;;;;;;5023796;28;20049;-68
2021/05/26 05:17:13;;;;;;;9.70;8.20;;;9.60;99.90;;;;;;5019345;28;20115;-69
2021/05/26 05:19:40;;;;;;;9.40;8.40;;;9.60;99.90;;;;;;5022863;28;20042;-68
2021/05/26 05:22:07;;;;;;;8.35;7.55;;;9.70;99.90;;;;;;5020640;28;20049;-69
2021/05/26 05:24:34;;;;;;;8.75;7.93;;;9.60;99.90;;;;;;5021546;28;20054;-68
2021/05/26 05:27:03;;;;;;;9.18;8.35;;;9.60;99.90;;;;;;5025619;28;20064;-69
2021/05/26 05:29:30;;;;;;;11.45;8.52;;;9.70;99.90;;;;;;5023940;28;20041;-69
2021/05/26 05:31:57;;;;;;;11.82;10.57;;;9.70;99.90;;;;;;5024608;28;20414;-67
2021/05/26 05:34:26;;;;;;;12.25;9.85;;;9.80;99.90;;;;;;5023504;28;20310;-68
2021/05/26 05:36:53;;;;;;;12.70;9.05;;;9.80;99.90;;;;;;5026632;28;20133;-69
2021/05/26 05:39:28;;;;;;;12.20;10.95;;;9.80;99.90;;;;;;5015775;28;20650;-70
2021/05/26 05:41:55;;;;;;;13.35;10.82;;;9.80;99.90;;;;;;5024972;28;20428;-68
2021/05/26 05:44:22;;;;;;;11.35;10.23;;;9.80;99.90;;;;;;5020175;28;20049;-68
2021/05/26 05:46:49;;;;;;;11.48;10.07;;;9.80;99.90;;;;;;5021918;28;20049;-68
2021/05/26 05:49:19;;;;;;;13.07;11.65;;;9.80;99.90;;;;;;5020637;28;20095;-68
2021/05/26 05:51:46;;;;;;;13.13;10.75;;;9.80;99.90;;;;;;5023537;28;20053;-69
2021/05/26 05:54:18;;;;;;;12.85;11.50;;;9.80;99.90;;;;;;5021600;28;20828;-69
2021/05/26 05:56:48;;;;;;;20.13;12.25;;;9.80;99.90;;;;;;5020484;28;20079;-67
2021/05/26 05:59:15;;;;;;;12.57;10.43;;;9.80;99.90;;;;;;5018610;28;20064;-68
2021/05/26 06:01:44;;;;;;;11.52;10.38;;;9.80;99.90;;;;;;5020123;28;20049;-70
2021/05/26 06:04:14;;;;;;;14.00;12.43;;;9.80;99.90;;;;;;5020830;28;20049;-67
2021/05/26 06:06:48;;;;;;;14.75;12.85;;;9.70;99.90;;;;;;5019167;28;20099;-68
2021/05/26 06:09:22;;;;;;;14.00;12.21;;;9.80;99.90;;;;;;4477635;28;10001389;-70
2021/05/26 06:11:49;;;;;;;16.63;13.73;;;9.80;99.90;;;;;;1035067;28;10002010;-68
2021/05/26 06:14:19;;;;;;;15.93;14.20;;;9.80;99.90;;;;;;5019052;28;20056;-67
2021/05/26 06:16:46;;;;;;;22.50;14.73;;;9.80;99.90;;;;;;5017935;28;20079;-67
2021/05/26 06:19:23;;;;;;;18.40;15.07;;;9.90;99.90;;;;;;5013502;28;20049;-67
2021/05/26 06:21:51;;;;;;;16.65;14.45;;;9.90;99.90;;;;;;5020459;28;20049;-70
2021/05/26 06:24:18;;;;;;;18.02;14.95;;;9.90;99.90;;;;;;5019776;28;20050;-68
2021/05/26 06:26:47;;;;;;;18.58;16.05;;;9.80;99.90;;;;;;5018095;28;20471;-67
2021/05/26 06:29:14;;;;;;;21.52;15.63;;;9.70;99.90;;;;;;5022532;28;20053;-67
2021/05/26 06:31:41;;;;;;;21.40;17.40;;;9.70;99.90;;;;;;5016485;28;20041;-68
2021/05/26 06:34:08;;;;;;;21.38;17.13;;;9.70;99.90;;;;;;5022159;28;20053;-67
2021/05/26 06:36:38;;;;;;;25.65;17.70;;;9.70;99.90;;;;;;5016205;28;20154;-67
2021/05/26 06:39:06;;;;;;;23.38;18.15;;;9.70;99.90;;;;;;5052766;28;20373;-68
2021/05/26 06:41:37;;;;;;;20.95;18.15;;;9.70;99.90;;;;;;5018972;28;20452;-68
2021/05/26 06:44:16;;;;;;;21.42;16.67;;;9.70;99.90;;;;;;5021577;28;20048;-70
2021/05/26 06:46:53;;;;;;;22.70;17.95;;;9.70;99.90;;;;;;5018188;28;20045;-69
2021/05/26 06:49:22;;;;;;;21.75;16.70;;;9.60;99.90;;;;;;5020052;28;20590;-68
2021/05/26 06:51:54;;;;;;;23.17;16.70;;;9.60;99.90;;;;;;5017978;28;20054;-68
2021/05/26 06:54:23;;;;;;;21.83;18.42;;;9.60;99.90;;;;;;5021049;28;20052;-67
2021/05/26 06:56:56;;;;;;;23.17;16.92;;;9.60;99.90;;;;;;5018267;28;20037;-68
2021/05/26 06:59:23;;;;;;;18.55;16.63;;;9.50;99.90;;;;;;5019124;28;20100;-68
2021/05/26 07:01:53;;;;;;;21.88;19.35;;;9.50;99.90;;;;;;5021431;28;20053;-68
2021/05/26 07:04:20;;;;;;;22.35;16.98;;;9.50;99.90;;;;;;5020689;28;20099;-68
2021/05/26 07:06:46;;;;;;;22.77;18.48;;;9.50;99.90;;;;;;5019543;28;20609;-67
2021/05/26 07:09:14;;;;;;;25.23;18.13;;;9.50;99.90;;;;;;5016940;28;20131;-70
2021/05/26 07:11:40;;;;;;;25.77;19.70;;;9.40;99.90;;;;;;5014370;28;20046;-68
2021/05/26 07:14:10;;;;;;;27.13;20.10;;;9.40;99.90;;;;;;5018080;28;20084;-68
2021/05/26 07:16:37;;;;;;;22.88;19.10;;;9.50;99.90;;;;;;5016687;28;20049;-67
2021/05/26 07:19:09;;;;;;;21.02;16.42;;;9.40;99.90;;;;;;5020680;28;20087;-68
2021/05/26 07:21:41;;;;;;;25.08;19.15;;;9.40;99.90;;;;;;5011443;28;20111;-67
2021/05/26 07:24:08;;;;;;;22.20;17.13;;;9.40;99.90;;;;;;5020542;28;20076;-67
2021/05/26 07:26:35;;;;;;;25.48;19.55;;;9.40;99.90;;;;;;5018317;28;20057;-68
2021/05/26 07:29:02;;;;;;;25.48;20.52;;;9.40;99.90;;;;;;5019607;28;20454;-69
2021/05/26 07:31:30;;;;;;;24.70;18.63;;;9.30;99.90;;;;;;5018979;28;20107;-67
2021/05/26 07:33:58;;;;;;;24.73;19.35;;;9.30;99.90;;;;;;5017645;28;20100;-69
2021/05/26 07:36:36;;;;;;;;;;;;;;;;;;;;;
2021/05/26 07:39:05;;;;;;;21.90;19.52;;;9.30;99.90;;;;;;5017208;28;20095;-70
2021/05/26 07:41:37;;;;;;;22.33;17.38;;;9.40;99.90;;;;;;5018323;28;20092;-68
2021/05/26 07:44:13;;;;;;;25.58;19.58;;;9.40;99.90;;;;;;5019491;28;20038;-70
2021/05/26 07:46:45;;;;;;;22.10;19.48;;;9.30;99.90;;;;;;5020855;28;20151;-67
2021/05/26 07:49:12;;;;;;;21.27;17.80;;;9.30;99.90;;;;;;5018771;28;20427;-69
2021/05/26 07:51:49;;;;;;;25.23;19.88;;;9.40;99.90;;;;;;5019418;28;20045;-68
2021/05/26 07:54:16;;;;;;;21.33;18.73;;;9.40;99.90;;;;;;5016307;28;21458;-68
2021/05/26 07:56:43;;;;;;;22.00;18.63;;;9.50;99.90;;;;;;5018121;28;20673;-67
2021/05/26 07:59:13;;;;;;;24.08;19.35;;;9.50;99.90;;;;;;5017848;28;20107;-68
2021/05/26 08:01:42;;;;;;;21.60;17.35;;;9.60;99.90;;;;;;5020422;28;20171;-68
2021/05/26 08:04:10;;;;;;;20.92;16.58;;;9.70;99.90;;;;;;5016315;28;20080;-68
2021/05/26 08:06:37;;;;;;;23.85;19.85;;;9.70;99.90;;;;;;5015620;28;20100;-71
2021/05/26 08:09:04;;;;;;;23.83;17.88;;;9.80;99.90;;;;;;5014876;28;20057;-68
2021/05/26 08:11:31;;;;;;;20.05;16.90;;;9.80;99.90;;;;;;5017004;28;20042;-68
2021/05/26 08:13:59;;;;;;;22.55;16.58;;;9.80;99.90;;;;;;5019877;28;20055;-68
2021/05/26 08:16:26;;;;;;;19.42;16.63;;;9.80;99.90;;;;;;5016149;28;20069;-68
2021/05/26 08:18:53;;;;;;;21.45;19.15;;;9.80;99.90;;;;;;5020676;28;20045;-68
2021/05/26 08:21:20;;;;;;;17.77;15.95;;;9.80;99.90;;;;;;5016490;28;20455;-68
2021/05/26 08:23:53;;;;;;;16.15;14.35;;;9.90;99.90;;;;;;5015335;28;20816;-68
2021/05/26 08:26:24;;;;;;;15.73;13.82;;;9.90;99.90;;;;;;5017866;28;20144;-67
2021/05/26 08:28:55;;;;;;;16.77;13.65;;;9.70;99.90;;;;;;5020621;28;20068;-67
2021/05/26 08:31:24;;;;;;;16.55;13.38;;;9.70;99.90;;;;;;5015304;28;20511;-69
2021/05/26 08:33:52;;;;;;;17.05;13.98;;;9.70;99.90;;;;;;5019881;28;20585;-67
2021/05/26 08:36:19;;;;;;;14.35;12.77;;;9.80;99.90;;;;;;5015615;28;20054;-68
2021/05/26 08:38:46;;;;;;;14.82;13.32;;;9.80;99.90;;;;;;5020988;28;20133;-69
2021/05/26 08:41:19;;;;;;;18.60;13.55;;;9.80;99.90;;;;;;5019516;28;20053;-67
2021/05/26 08:43:46;;;;;;;17.33;14.05;;;9.80;99.90;;;;;;5023015;28;20041;-68
2021/05/26 08:46:13;;;;;;;17.67;14.63;;;9.90;99.90;;;;;;5018836;28;20069;-69
2021/05/26 08:48:42;;;;;;;19.38;14.80;;;9.90;99.90;;;;;;5022980;28;20049;-68
2021/05/26 08:51:22;;;;;;;19.48;16.42;;;9.90;99.90;;;;;;5021648;28;20045;-70
2021/05/26 08:53:49;;;;;;;17.95;14.75;;;9.80;99.90;;;;;;5021900;28;20047;-67
2021/05/26 08:56:18;;;;;;;19.25;16.17;;;9.80;99.90;;;;;;5021790;28;20049;-68
2021/05/26 08:58:45;;;;;;;18.48;14.98;;;9.80;99.90;;;;;;5023788;28;20042;-70
2021/05/26 09:01:16;;;;;;;20.17;15.90;;;9.80;99.90;;;;;;5023375;28;20828;-67
2021/05/26 09:03:45;;;;;;;17.45;15.40;;;9.80;99.90;;;;;;5018103;28;20052;-67
2021/05/26 09:06:13;;;;;;;16.42;14.35;;;9.80;99.90;;;;;;5020438;28;20073;-68
2021/05/26 09:08:47;;;;;;;17.75;15.43;;;9.90;99.90;;;;;;5023896;28;20125;-70
2021/05/26 09:11:15;;;;;;;19.88;14.88;;;10.00;99.90;;;;;;5019265;28;20129;-67
2021/05/26 09:13:45;;;;;;;18.67;15.52;;;9.90;99.90;;;;;;5021732;28;20056;-68
2021/05/26 09:16:24;;;;;;;;;;;10.10;99.90;;;;;;5021672;28;20492;-69
2021/05/26 09:18:58;;;;;;;18.65;15.57;;;10.20;99.90;;;;;;5022291;28;19925;-68
2021/05/26 09:21:41;;;;;;;19.98;16.33;;;10.10;99.90;;;;;;5019232;28;20050;-67
2021/05/26 09:24:20;;;;;;;19.83;14.88;;;10.20;99.90;;;;;;5023144;28;20053;-67
2021/05/26 09:27:00;;;;;;;16.45;13.70;;;10.30;99.90;;;;;;5020307;28;20037;-67
2021/05/26 09:29:35;;;;;;;13.65;12.25;;;10.30;99.90;;;;;;5018960;28;20060;-69
2021/05/26 09:32:16;;;;;;;25.70;14.20;;;10.20;99.90;;;;;;5020615;28;20099;-69
2021/05/26 09:35:00;;;;;;;18.27;13.00;;;10.20;99.90;;;;;;5024288;28;20056;-67
2021/05/26 09:37:32;;;;;;;14.50;12.00;;;10.30;99.90;;;;;;5017030;28;20123;-67
2021/05/26 09:40:06;;;;;;;17.60;10.45;;;10.30;99.90;;;;;;5020375;28;20127;-67
2021/05/26 09:42:46;;;;;;;13.32;11.57;;;10.20;99.90;;;;;;5022776;28;20042;-67
2021/05/26 09:45:27;;;;;;;14.73;10.70;;;10.30;99.90;;;;;;5025691;28;20140;-67
2021/05/26 09:48:14;;;;;;;11.57;10.02;;;10.40;99.90;;;;;;5018649;28;20037;-67
2021/05/26 09:50:41;;;;;;;14.48;9.43;;;10.50;99.90;;;;;;5021016;28;20041;-67
2021/05/26 09:53:15;;;;;;;15.73;10.90;;;10.50;99.90;;;;;;5017402;28;20052;-68
2021/05/26 09:55:44;;;;;;;11.05;10.00;;;10.70;99.90;;;;;;5023256;28;20128;-67
2021/05/26 09:58:18;;;;;;;11.40;9.55;;;10.80;99.90;;;;;;5011812;28;20061;-67
2021/05/26 10:00:50;;;;;;;15.40;11.18;;;10.80;99.90;;;;;;5021775;28;20049;-68
2021/05/26 10:03:18;;;;;;;10.43;9.23;;;10.90;99.90;;;;;;5018874;28;20404;-68
2021/05/26 10:05:45;;;;;;;11.88;10.68;;;11.00;99.90;;;;;;5023478;28;20050;-68
2021/05/26 10:08:37;;;;;;;10.05;9.05;;;11.10;99.90;;;;;;5020656;28;20079;-68
2021/05/26 10:11:36;;;;;;;20.55;9.82;;;11.10;99.90;;;;;;5015254;28;20045;-67
2021/05/26 10:14:10;;;;;;;11.88;9.50;;;11.30;99.90;;;;;;5022631;28;20120;-67
2021/05/26 10:16:42;;;;;;;10.70;9.40;;;11.30;99.90;;;;;;5019948;28;20046;-67
2021/05/26 10:19:13;;;;;;;11.95;9.80;;;11.20;99.90;;;;;;5016852;28;20428;-67
2021/05/26 10:21:47;;;;;;;11.13;9.77;;;11.30;99.90;;;;;;5017956;28;20049;-68
2021/05/26 10:24:24;;;;;;;11.93;9.38;;;11.30;99.90;;;;;;5017013;28;20669;-67
2021/05/26 10:26:55;;;;;;;12.15;9.27;;;11.30;99.90;;;;;;5018431;28;20053;-67
2021/05/26 10:29:40;;;;;;;11.45;8.75;;;11.40;99.90;;;;;;5016156;28;20107;-67
2021/05/26 10:32:29;;;;;;;12.40;8.90;;;11.50;99.90;;;;;;5019846;28;20042;-68
2021/05/26 10:35:04;;;;;;;9.90;7.85;;;11.60;99.90;;;;;;5018619;28;20160;-68
2021/05/26 10:37:37;;;;;;;8.15;7.15;;;11.70;99.90;;;;;;5016037;28;20128;-68
2021/05/26 10:40:22;;;;;;;10.43;8.35;;;11.70;99.90;;;;;;5018570;28;20042;-69
2021/05/26 10:42:54;;;;;;;8.77;7.53;;;11.60;99.90;;;;;;5015993;28;20041;-67
2021/05/26 10:45:36;;;;;;;14.43;9.27;;;11.80;99.90;;;;;;5017924;28;20046;-67
2021/05/26 10:48:03;;;;;;;12.27;8.20;;;11.80;99.90;;;;;;5016590;28;20065;-69
2021/05/26 10:50:52;;;;;;;12.10;8.70;;;11.60;99.90;;;;;;5014210;28;20046;-68
2021/05/26 10:53:19;;;;;;;8.85;7.95;;;11.60;99.90;;;;;;5016149;28;20621;-68
2021/05/26 10:55:52;;;;;;;27.95;12.18;;;11.50;99.90;;;;;;5013847;28;20133;-66
2021/05/26 10:58:26;;;;;;;10.63;9.23;;;11.40;99.90;;;;;;5016373;28;20046;-69
2021/05/26 11:01:14;;;;;;;13.85;10.40;;;11.40;99.90;;;;;;5015614;28;20480;-67
2021/05/26 11:03:44;;;;;;;13.65;10.48;;;11.30;99.90;;;;;;5018791;28;20091;-68
2021/05/26 11:06:17;;;;;;;14.80;10.60;;;11.40;99.90;;;;;;5047002;28;20042;-67
2021/05/26 11:08:49;;;;;;;13.35;11.00;;;11.40;99.90;;;;;;5019728;28;20050;-69
2021/05/26 11:11:25;;;;;;;12.75;10.63;;;11.50;99.90;;;;;;5019057;28;20080;-67
2021/05/26 11:14:11;;;;;;;13.00;9.70;;;11.40;99.90;;;;;;5018823;28;20041;-67
2021/05/26 11:16:44;;;;;;;13.70;10.48;;;11.40;99.90;;;;;;5015509;28;20052;-67
2021/05/26 11:19:32;;;;;;;11.32;10.13;;;11.40;99.90;;;;;;5022837;28;20065;-68
2021/05/26 11:22:15;;;;;;;14.63;9.57;;;11.50;99.90;;;;;;5014446;28;20436;-67
2021/05/26 11:24:52;;;;;;;15.00;11.40;;;11.50;99.90;;;;;;5019396;28;20061;-67
2021/05/26 11:27:29;;;;;;;11.90;9.98;;;11.50;99.90;;;;;;5010231;28;20033;-67
2021/05/26 11:30:03;;;;;;;11.05;9.98;;;11.50;99.90;;;;;;5020431;28;20049;-70
2021/05/26 11:32:55;;;;;;;15.70;11.13;;;11.50;99.90;;;;;;5014309;28;20168;-69
2021/05/26 11:35:22;;;;;;;13.02;10.35;;;11.50;99.90;;;;;;5019284;28;20092;-68
2021/05/26 11:37:56;;;;;;;10.02;8.80;;;11.60;99.90;;;;;;5012393;28;20049;-67
2021/05/26 11:40:28;;;;;;;13.43;11.48;;;11.80;99.90;;;;;;5020238;28;20050;-69
2021/05/26 11:42:59;;;;;;;10.73;9.60;;;11.80;99.90;;;;;;5016680;28;20368;-68
2021/05/26 11:45:26;;;;;;;13.63;10.35;;;11.80;99.90;;;;;;5014734;28;20046;-68
2021/05/26 11:48:04;;;;;;;10.77;9.48;;;11.70;99.90;;;;;;5015146;28;20069;-68
2021/05/26 11:50:32;;;;;;;13.27;10.07;;;11.70;99.90;;;;;;5016746;28;20501;-69
2021/05/26 11:53:02;;;;;;;12.18;10.25;;;11.70;99.90;;;;;;5017405;28;20037;-67
2021/05/26 11:55:30;;;;;;;11.77;9.60;;;11.80;99.90;;;;;;5017899;28;20549;-67
2021/05/26 11:57:57;;;;;;;9.90;7.75;;;11.90;99.90;;;;;;5020426;28;20053;-68
2021/05/26 12:00:35;;;;;;;10.57;8.32;;;11.90;99.90;;;;;;5016067;28;20063;-70
2021/05/26 12:03:05;;;;;;;;;;;11.80;99.90;;;;;;5013637;28;20132;-68
2021/05/26 12:05:53;;;;;;;9.20;7.70;;;11.90;99.90;;;;;;5015676;28;19921;-67
2021/05/26 12:08:25;;;;;;;12.02;8.57;;;11.90;99.90;;;;;;5018169;28;20295;-67
2021/05/26 12:11:11;;;;;;;8.05;7.28;;;12.00;99.90;;;;;;5021536;28;20159;-69
2021/05/26 12:13:43;;;;;;;10.02;7.38;;;12.10;99.90;;;;;;5013070;28;20119;-68
2021/05/26 12:16:18;;;;;;;8.15;7.30;;;12.10;99.90;;;;;;5017441;28;20049;-69
2021/05/26 12:19:00;;;;;;;5.97;5.28;;;12.20;99.90;;;;;;5014809;28;20496;-69
2021/05/26 12:21:30;;;;;;;6.00;5.43;;;12.30;99.90;;;;;;5015744;28;20432;-66
2021/05/26 12:24:04;;;;;;;6.47;4.95;;;12.30;99.90;;;;;;5018031;28;20072;-66
2021/05/26 12:26:37;;;;;;;6.70;4.23;;;12.40;99.90;;;;;;5016194;28;20115;-68
2021/05/26 12:29:08;;;;;;;4.82;4.05;;;12.50;99.90;;;;;;5016378;28;20046;-67
2021/05/26 12:31:41;;;;;;;5.75;3.28;;;12.60;99.90;;;;;;5016501;28;20143;-67
2021/05/26 12:34:14;;;;;;;6.18;3.72;;;12.70;99.90;;;;;;5013498;28;20049;-67
2021/05/26 12:36:48;;;;;;;3.83;3.10;;;12.70;99.90;;;;;;5016950;28;20046;-67
2021/05/26 12:39:23;;;;;;;5.53;3.13;;;12.60;99.90;;;;;;5012763;28;20049;-66
2021/05/26 12:41:52;;;;;;;4.95;2.60;;;12.60;99.90;;;;;;5017700;28;20049;-66
2021/05/26 12:44:24;;;;;;;3.97;2.85;;;12.50;99.90;;;;;;5019225;28;20068;-68
2021/05/26 12:47:14;;;;;;;4.70;3.25;;;12.50;99.90;;;;;;5014451;28;20041;-67
2021/05/26 12:49:43;;;;;;;5.05;3.05;;;12.60;99.90;;;;;;5017153;28;20052;-68
2021/05/26 12:52:23;;;;;;;3.92;2.72;;;12.70;99.90;;;;;;5014517;28;20494;-67
2021/05/26 12:54:50;;;;;;;7.72;3.10;;;12.70;99.90;;;;;;5011257;28;20458;-68
2021/05/26 12:57:20;;;;;;;3.72;2.80;;;12.60;99.90;;;;;;5019178;28;20042;-67
2021/05/26 12:59:59;;;;;;;5.38;2.63;;;12.60;99.90;;;;;;5014979;28;21337;-67
2021/05/26 13:02:37;;;;;;;6.80;3.00;;;12.70;99.90;;;;;;5019059;28;20165;-66
2021/05/26 13:05:16;;;;;;;3.05;2.67;;;12.90;99.90;;;;;;5013650;28;20081;-66
2021/05/26 13:07:45;;;;;;;5.65;3.15;;;12.90;99.90;;;;;;5016029;28;20084;-67
2021/05/26 13:10:36;;;;;;;7.38;2.70;;;12.80;99.90;;;;;;5017215;28;20045;-67